Time;durP1;ratioP1;P1;durP2;ratioP2;P2;SDS_P1;SDS_P2;PMS_P1;PMS_P2;Temp;Humidity;BMP_temperature;BMP_pressure;BME280_temperature;BME280_humidity;BME280_pressure;Samples;Min_cycle;Max_cycle;Signal;HPM_P1;HPM_P2
2022/08/06 00:03:24;;;;;;;0.20;0.20;;;27.60;48.80;;;;;;20738710;28;20403;-71
2022/08/06 00:13:25;;;;;;;0.77;0.40;;;27.60;48.80;;;;;;20738326;28;20123;-73
2022/08/06 00:23:25;;;;;;;0.35;0.32;;;27.50;48.80;;;;;;20738156;28;20486;-71
2022/08/06 00:33:26;;;;;;;1.45;0.30;;;27.50;48.70;;;;;;20754577;28;20833;-72
2022/08/06 00:43:27;;;;;;;0.20;0.10;;;27.50;48.70;;;;;;20736657;28;20038;-71
2022/08/06 00:53:27;;;;;;;1.30;0.40;;;27.40;48.60;;;;;;20751450;28;20038;-71
2022/08/06 01:03:28;;;;;;;0.25;0.20;;;27.40;48.60;;;;;;20733078;28;20030;-72
2022/08/06 01:13:29;;;;;;;0.10;0.10;;;27.40;48.60;;;;;;21039946;23;20066;-71
2022/08/06 01:23:56;;;;;;;0.30;0.20;;;27.40;48.50;;;;;;20668087;28;20183;-71
2022/08/06 01:34:00;;;;;;;0.85;0.30;;;27.30;48.40;;;;;;20667275;28;20396;-71
2022/08/06 01:44:02;;;;;;;0.20;0.20;;;27.30;48.40;;;;;;20650655;28;20045;-71
2022/08/06 01:54:03;;;;;;;0.52;0.25;;;27.20;48.30;;;;;;20649755;28;20252;-70
2022/08/06 02:04:04;;;;;;;0.93;0.32;;;27.20;48.20;;;;;;20648489;28;20038;-71
2022/08/06 02:14:05;;;;;;;0.28;0.17;;;27.20;48.20;;;;;;20647717;28;20042;-71
2022/08/06 02:24:06;;;;;;;0.47;0.30;;;27.20;48.20;;;;;;20631962;28;20141;-71
2022/08/06 02:34:07;;;;;;;0.93;0.50;;;27.10;48.00;;;;;;20630526;28;20037;-71
2022/08/06 02:44:39;;;;;;;2.03;0.17;;;27.10;48.00;;;;;;20661867;28;20120;-70
2022/08/06 02:55:02;;;;;;;0.30;0.20;;;27.10;48.00;;;;;;20645713;28;20469;-71
2022/08/06 03:05:07;;;;;;;0.20;0.20;;;27.00;47.80;;;;;;20660837;28;20046;-69
2022/08/06 03:15:07;;;;;;;0.32;0.30;;;27.00;47.80;;;;;;20643897;28;20057;-70
2022/08/06 03:25:08;;;;;;;0.50;0.30;;;27.00;47.90;;;;;;20643988;28;20097;-71
2022/08/06 03:35:09;;;;;;;0.57;0.20;;;26.90;47.70;;;;;;20643342;28;20383;-71
2022/08/06 03:45:10;;;;;;;0.30;0.20;;;26.90;47.70;;;;;;20675115;28;20130;-71
2022/08/06 03:55:15;;;;;;;0.20;0.20;;;26.80;47.70;;;;;;20658859;28;20023;-74
2022/08/06 04:05:21;;;;;;;0.17;0.10;;;26.80;47.60;;;;;;20642528;28;20046;-71
2022/08/06 04:15:21;;;;;;;0.13;0.10;;;26.80;47.60;;;;;;20641885;28;20045;-71
2022/08/06 04:25:22;;;;;;;0.38;0.20;;;26.70;47.50;;;;;;20657123;28;20378;-71
2022/08/06 04:35:23;;;;;;;0.32;0.28;;;26.70;47.50;;;;;;20667833;28;20049;-71
2022/08/06 04:45:24;;;;;;;0.20;0.20;;;26.60;47.50;;;;;;20671448;28;20073;-71
2022/08/06 04:55:25;;;;;;;0.10;0.10;;;26.60;47.40;;;;;;20655304;28;20476;-70
2022/08/06 05:05:25;;;;;;;0.30;0.15;;;26.60;47.40;;;;;;20670410;28;20051;-71
2022/08/06 05:15:34;;;;;;;1.80;0.20;;;26.60;47.40;;;;;;20654326;28;20105;-72
2022/08/06 05:25:38;;;;;;;0.50;0.25;;;26.60;47.50;;;;;;20652015;28;20397;-71
2022/08/06 05:35:38;;;;;;;0.73;0.30;;;26.50;47.60;;;;;;20651550;28;20026;-71
2022/08/06 05:45:39;;;;;;;0.80;0.30;;;26.50;47.60;;;;;;20649759;28;20046;-72
2022/08/06 05:55:51;;;;;;;0.20;0.20;;;26.50;47.60;;;;;;20649780;28;20034;-71
2022/08/06 06:05:53;;;;;;;2.40;0.45;;;26.50;47.70;;;;;;20648296;28;20393;-71
2022/08/06 06:15:59;;;;;;;1.05;0.40;;;26.50;47.70;;;;;;20666296;28;20042;-72
2022/08/06 06:26:16;;;;;;;1.35;0.40;;;26.50;47.70;;;;;;20647231;28;20588;-70
2022/08/06 06:36:20;;;;;;;0.88;0.40;;;26.50;47.70;;;;;;20646867;28;20054;-70
2022/08/06 06:46:51;;;;;;;0.10;0.10;;;26.40;47.60;;;;;;20662343;28;20077;-71
2022/08/06 06:56:53;;;;;;;0.70;0.28;;;26.40;47.60;;;;;;20644349;28;20042;-72
2022/08/06 07:06:54;;;;;;;0.35;0.35;;;26.40;47.50;;;;;;20661124;28;20396;-71
2022/08/06 07:16:55;;;;;;;0.68;0.28;;;26.40;47.50;;;;;;20643931;28;20064;-71
2022/08/06 07:26:56;;;;;;;1.42;0.38;;;26.40;47.60;;;;;;20643231;28;20039;-70
2022/08/06 07:36:56;;;;;;;0.60;0.30;;;26.40;47.70;;;;;;20642659;28;20045;-73
2022/08/06 07:46:59;;;;;;;1.00;0.35;;;26.40;47.60;;;;;;20642980;28;20294;-73
2022/08/06 07:57:00;;;;;;;1.35;0.50;;;26.40;47.70;;;;;;20641958;28;20037;-72
2022/08/06 08:07:02;;;;;;;0.47;0.30;;;26.40;47.70;;;;;;20648504;28;20046;-71
2022/08/06 08:17:02;;;;;;;0.22;0.22;;;26.40;47.70;;;;;;20657581;28;20288;-70
2022/08/06 08:27:07;;;;;;;0.30;0.10;;;26.40;47.50;;;;;;20656215;28;20046;-71
2022/08/06 08:37:07;;;;;;;;;;;26.50;47.30;;;;;;20656185;28;20033;-70
2022/08/06 08:47:09;;;;;;;2.30;0.38;;;26.50;47.00;;;;;;20672977;28;20500;-71
2022/08/06 08:57:09;;;;;;;0.65;0.30;;;26.60;46.80;;;;;;20686922;28;20038;-72
2022/08/06 09:07:10;;;;;;;0.10;0.10;;;26.60;46.60;;;;;;20653482;28;20453;-72
2022/08/06 09:17:10;;;;;;;0.68;0.30;;;26.70;46.50;;;;;;20667877;28;20038;-70
2022/08/06 09:27:13;;;;;;;0.20;0.20;;;26.80;46.20;;;;;;20668075;28;20176;-71
2022/08/06 09:37:14;;;;;;;0.60;0.30;;;26.90;45.90;;;;;;20667512;28;20030;-71
2022/08/06 09:47:21;;;;;;;0.57;0.20;;;27.10;45.60;;;;;;20666832;28;20057;-72
2022/08/06 09:57:23;;;;;;;0.57;0.30;;;27.30;45.10;;;;;;20634220;28;20031;-70
2022/08/06 10:07:30;;;;;;;0.65;0.10;;;27.50;44.60;;;;;;20649910;28;20046;-71
2022/08/06 10:17:31;;;;;;;0.13;0.13;;;27.70;44.20;;;;;;20648177;28;20035;-72
2022/08/06 10:27:35;;;;;;;0.90;0.20;;;27.90;43.90;;;;;;20648008;28;20121;-72
2022/08/06 10:37:41;;;;;;;1.73;0.22;;;28.10;43.50;;;;;;20648198;28;20041;-70
2022/08/06 10:47:43;;;;;;;0.10;0.10;;;28.30;43.20;;;;;;20662526;28;20053;-72
2022/08/06 10:57:44;;;;;;;0.40;0.10;;;28.40;42.80;;;;;;20644981;28;20041;-74
2022/08/06 11:08:02;;;;;;;0.22;0.20;;;28.50;42.50;;;;;;20660294;28;20456;-72
2022/08/06 11:18:07;;;;;;;0.10;0.10;;;28.50;42.30;;;;;;20644486;28;20640;-72
2022/08/06 11:28:12;;;;;;;0.45;0.22;;;28.60;42.30;;;;;;20643492;28;20040;-72
2022/08/06 11:38:13;;;;;;;0.10;0.10;;;28.60;42.20;;;;;;20660241;28;20485;-73
2022/08/06 11:48:15;;;;;;;0.45;0.20;;;28.60;42.10;;;;;;20642424;28;20072;-72
2022/08/06 11:58:20;;;;;;;0.38;0.10;;;28.70;42.00;;;;;;20626411;28;20030;-71
2022/08/06 12:08:21;;;;;;;0.57;0.10;;;28.70;42.00;;;;;;20674063;28;20053;-71
2022/08/06 12:18:22;;;;;;;0.82;0.30;;;28.80;41.80;;;;;;20642342;28;20468;-73
2022/08/06 12:28:23;;;;;;;0.90;0.20;;;29.00;41.40;;;;;;20657273;28;20038;-72
2022/08/06 12:38:29;;;;;;;0.63;0.22;;;29.20;40.90;;;;;;20640947;28;20036;-71
2022/08/06 12:48:31;;;;;;;0.22;0.20;;;29.50;40.10;;;;;;20639758;28;20129;-70
2022/08/06 12:58:36;;;;;;;0.40;0.22;;;29.70;39.70;;;;;;20651056;28;20030;-70
2022/08/06 13:08:37;;;;;;;0.77;0.20;;;29.90;39.30;;;;;;20653574;28;20453;-71
2022/08/06 13:18:38;;;;;;;0.73;0.22;;;30.00;39.20;;;;;;20653014;28;20043;-74
2022/08/06 13:28:39;;;;;;;0.47;0.10;;;30.00;38.90;;;;;;20652200;28;20042;-72
2022/08/06 13:38:40;;;;;;;0.10;0.10;;;30.00;38.90;;;;;;20651483;28;20080;-72
2022/08/06 13:48:48;;;;;;;0.00;0.00;;;30.10;39.00;;;;;;20682610;28;20041;-71
2022/08/06 13:58:49;;;;;;;0.20;0.10;;;30.20;39.00;;;;;;20649907;28;20042;-74
2022/08/06 14:08:49;;;;;;;0.10;0.10;;;30.40;38.80;;;;;;20649148;28;20508;-73
2022/08/06 14:18:50;;;;;;;0.45;0.20;;;30.30;38.40;;;;;;20650879;28;20041;-73
2022/08/06 14:28:51;;;;;;;0.20;0.15;;;30.30;38.20;;;;;;20666656;28;20069;-72
2022/08/06 14:38:51;;;;;;;0.10;0.10;;;30.50;38.30;;;;;;20679340;28;20042;-72
2022/08/06 14:48:52;;;;;;;0.80;0.15;;;30.50;38.30;;;;;;20678304;28;20042;-74
2022/08/06 14:58:53;;;;;;;0.00;0.00;;;30.50;38.30;;;;;;20677939;28;20034;-72
2022/08/06 15:08:53;;;;;;;0.20;0.20;;;30.40;38.40;;;;;;20677225;28;20404;-71
2022/08/06 15:18:54;;;;;;;0.28;0.00;;;30.30;38.50;;;;;;20643485;28;20528;-71
2022/08/06 15:28:54;;;;;;;1.85;0.25;;;30.20;38.60;;;;;;20627343;28;20065;-71
2022/08/06 15:38:56;;;;;;;0.10;0.10;;;30.10;38.70;;;;;;20642786;28;20433;-75
2022/08/06 15:48:59;;;;;;;0.38;0.20;;;30.10;38.90;;;;;;20642626;28;20173;-70
2022/08/06 15:58:59;;;;;;;0.13;0.10;;;30.00;38.70;;;;;;20642155;28;20038;-75
2022/08/06 16:09:00;;;;;;;1.93;0.20;;;30.10;38.80;;;;;;20659187;28;20077;-72
2022/08/06 16:19:01;;;;;;;0.10;0.10;;;30.20;38.90;;;;;;20641960;28;20348;-73
2022/08/06 16:29:01;;;;;;;0.50;0.20;;;30.20;38.80;;;;;;20648520;28;20125;-71
2022/08/06 16:39:02;;;;;;;0.10;0.10;;;30.30;38.80;;;;;;20656347;28;20687;-71
2022/08/06 16:49:03;;;;;;;0.45;0.25;;;30.40;38.60;;;;;;20655227;28;20312;-71
2022/08/06 16:59:03;;;;;;;0.25;0.20;;;30.50;38.40;;;;;;20670760;28;20050;-71
2022/08/06 17:09:05;;;;;;;0.40;0.15;;;30.50;38.20;;;;;;20653784;28;20638;-73
2022/08/06 17:19:05;;;;;;;0.20;0.00;;;30.50;38.20;;;;;;20685396;28;20121;-74
2022/08/06 17:29:06;;;;;;;0.35;0.10;;;30.50;38.20;;;;;;20652633;28;20608;-72
2022/08/06 17:39:07;;;;;;;0.25;0.08;;;30.50;38.30;;;;;;20667122;28;20035;-72
2022/08/06 17:49:07;;;;;;;0.38;0.10;;;30.40;38.40;;;;;;20666726;28;20389;-71
2022/08/06 17:59:08;;;;;;;0.65;0.10;;;30.40;38.60;;;;;;20682266;28;20623;-73
2022/08/06 18:09:09;;;;;;;0.32;0.13;;;30.40;38.80;;;;;;20649431;28;20045;-74
2022/08/06 18:19:10;;;;;;;0.20;0.10;;;30.30;39.00;;;;;;20666477;28;20121;-71
2022/08/06 18:29:10;;;;;;;0.20;0.10;;;30.20;39.10;;;;;;20631152;28;20432;-71
2022/08/06 18:39:12;;;;;;;0.25;0.10;;;30.10;39.30;;;;;;20630408;28;20113;-71
2022/08/06 18:49:13;;;;;;;0.15;0.10;;;30.10;39.50;;;;;;20646998;28;20039;-72
2022/08/06 18:59:14;;;;;;;0.13;0.10;;;30.00;39.60;;;;;;20661630;28;20040;-71
2022/08/06 19:09:14;;;;;;;0.10;0.10;;;30.00;39.80;;;;;;20661297;28;20034;-72
2022/08/06 19:19:15;;;;;;;0.93;0.45;;;30.00;39.90;;;;;;20643888;28;20133;-75
2022/08/06 19:29:15;;;;;;;0.25;0.20;;;29.90;39.90;;;;;;20643419;28;20050;-72
2022/08/06 19:39:16;;;;;;;0.73;0.30;;;29.90;40.00;;;;;;20660257;28;20030;-72
2022/08/06 19:49:17;;;;;;;0.90;0.40;;;29.90;40.10;;;;;;20643483;28;20053;-72
2022/08/06 19:59:17;;;;;;;0.80;0.40;;;29.80;40.10;;;;;;20659635;28;20495;-71
2022/08/06 20:09:18;;;;;;;0.50;0.32;;;29.80;40.20;;;;;;20658043;28;20050;-71
2022/08/06 20:19:18;;;;;;;0.77;0.25;;;29.80;40.30;;;;;;20658955;28;20127;-74
2022/08/06 20:29:19;;;;;;;0.20;0.20;;;29.70;40.20;;;;;;20657071;28;20043;-72
2022/08/06 20:39:20;;;;;;;0.75;0.30;;;29.80;40.40;;;;;;20673348;28;20038;-71
2022/08/06 20:49:21;;;;;;;0.30;0.30;;;29.70;40.30;;;;;;20671835;28;20060;-71
2022/08/06 20:59:21;;;;;;;0.60;0.30;;;29.70;40.40;;;;;;20655261;28;20030;-72
2022/08/06 21:09:22;;;;;;;0.93;0.32;;;29.70;40.30;;;;;;20686385;28;20308;-75
2022/08/06 21:19:22;;;;;;;0.40;0.30;;;29.70;40.40;;;;;;20667772;28;20069;-72
2022/08/06 21:29:23;;;;;;;0.60;0.35;;;29.60;40.30;;;;;;20652072;28;20050;-73
2022/08/06 21:39:26;;;;;;;0.08;0.03;;;29.60;40.30;;;;;;20650866;28;20121;-72
2022/08/06 21:49:28;;;;;;;0.47;0.27;;;29.60;40.30;;;;;;20666011;28;20469;-71
2022/08/06 21:59:29;;;;;;;0.20;0.20;;;29.50;40.30;;;;;;20667206;28;20042;-72
2022/08/06 22:09:30;;;;;;;1.25;0.20;;;29.50;40.30;;;;;;20665351;28;20136;-73
2022/08/06 22:19:31;;;;;;;0.32;0.10;;;29.50;40.40;;;;;;20648172;28;20041;-72
2022/08/06 22:30:31;;;;;;;0.28;0.20;;;29.40;40.30;;;;;;20663170;28;20042;-72
2022/08/06 22:39:52;;;;;;;1.02;0.40;;;29.40;40.30;;;;;;20665842;28;20030;-71
2022/08/06 22:49:52;;;;;;;0.68;0.20;;;29.40;40.30;;;;;;20629292;28;20096;-74
2022/08/06 22:59:53;;;;;;;0.47;0.30;;;29.40;40.20;;;;;;20629086;28;20125;-73
2022/08/06 23:09:53;;;;;;;0.95;0.43;;;29.40;40.20;;;;;;20660061;28;20404;-72
2022/08/06 23:19:54;;;;;;;0.40;0.25;;;29.30;40.10;;;;;;20661539;28;20132;-72
2022/08/06 23:29:54;;;;;;;0.52;0.20;;;29.30;40.10;;;;;;20659400;28;20449;-72
2022/08/06 23:39:58;;;;;;;0.73;0.30;;;29.30;40.10;;;;;;20641823;28;20045;-72
2022/08/06 23:49:58;;;;;;;0.50;0.35;;;29.30;40.00;;;;;;20643193;28;20125;-71
2022/08/06 23:59:59;;;;;;;0.30;0.30;;;29.30;40.00;;;;;;20641880;28;20049;-72
